sensor_id;sensor_type;location;lat;lon;timestamp;temperature;humidity
7360;DHT22;3720;48.274;7.796;2024-01-10T00:02:25;-0.90;99.90
7360;DHT22;3720;48.274;7.796;2024-01-10T00:04:57;-0.90;99.90
7360;DHT22;3720;48.274;7.796;2024-01-10T00:07:31;-1.00;99.90
7360;DHT22;3720;48.274;7.796;2024-01-10T00:10:03;-1.00;99.90
7360;DHT22;3720;48.274;7.796;2024-01-10T00:12:35;-1.00;99.90
7360;DHT22;3720;48.274;7.796;2024-01-10T00:15:08;-0.90;99.90
7360;DHT22;3720;48.274;7.796;2024-01-10T00:17:40;-0.90;99.90
7360;DHT22;3720;48.274;7.796;2024-01-10T00:20:12;-0.90;99.90
7360;DHT22;3720;48.274;7.796;2024-01-10T00:22:45;-0.90;99.90
7360;DHT22;3720;48.274;7.796;2024-01-10T00:25:17;-0.80;99.90
7360;DHT22;3720;48.274;7.796;2024-01-10T00:27:49;-0.90;99.90
7360;DHT22;3720;48.274;7.796;2024-01-10T00:30:21;-0.90;99.90
7360;DHT22;3720;48.274;7.796;2024-01-10T00:32:53;-0.90;99.90
7360;DHT22;3720;48.274;7.796;2024-01-10T00:35:25;-0.80;99.90
7360;DHT22;3720;48.274;7.796;2024-01-10T00:37:59;-0.80;99.90
7360;DHT22;3720;48.274;7.796;2024-01-10T00:40:30;-0.80;99.90
7360;DHT22;3720;48.274;7.796;2024-01-10T00:43:02;-0.80;99.90
7360;DHT22;3720;48.274;7.796;2024-01-10T00:45:34;-0.80;99.90
7360;DHT22;3720;48.274;7.796;2024-01-10T00:48:06;-0.80;99.90
7360;DHT22;3720;48.274;7.796;2024-01-10T00:50:39;-0.80;99.90
7360;DHT22;3720;48.274;7.796;2024-01-10T00:53:12;-0.80;99.90
7360;DHT22;3720;48.274;7.796;2024-01-10T00:55:44;-0.80;99.90
7360;DHT22;3720;48.274;7.796;2024-01-10T00:58:16;-0.80;99.90
7360;DHT22;3720;48.274;7.796;2024-01-10T01:00:48;-0.70;99.90
7360;DHT22;3720;48.274;7.796;2024-01-10T01:03:20;-0.70;99.90
7360;DHT22;3720;48.274;7.796;2024-01-10T01:05:52;-0.70;99.90
7360;DHT22;3720;48.274;7.796;2024-01-10T01:08:25;-0.70;99.90
7360;DHT22;3720;48.274;7.796;2024-01-10T01:10:57;-0.70;99.90
7360;DHT22;3720;48.274;7.796;2024-01-10T01:13:28;-0.70;99.90
7360;DHT22;3720;48.274;7.796;2024-01-10T01:16:00;-0.70;99.90
7360;DHT22;3720;48.274;7.796;2024-01-10T01:18:32;-0.70;99.90
7360;DHT22;3720;48.274;7.796;2024-01-10T01:21:04;-0.70;99.90
7360;DHT22;3720;48.274;7.796;2024-01-10T01:23:38;-0.70;99.90
7360;DHT22;3720;48.274;7.796;2024-01-10T01:26:09;-0.80;99.90
7360;DHT22;3720;48.274;7.796;2024-01-10T01:28:43;-0.80;99.90
7360;DHT22;3720;48.274;7.796;2024-01-10T01:31:15;-0.70;99.90
7360;DHT22;3720;48.274;7.796;2024-01-10T01:33:46;-0.70;99.90
7360;DHT22;3720;48.274;7.796;2024-01-10T01:36:18;-0.70;99.90
7360;DHT22;3720;48.274;7.796;2024-01-10T01:38:52;-0.70;99.90
7360;DHT22;3720;48.274;7.796;2024-01-10T01:41:24;-0.80;99.90
7360;DHT22;3720;48.274;7.796;2024-01-10T01:43:56;-0.70;99.90
7360;DHT22;3720;48.274;7.796;2024-01-10T01:46:28;-0.70;99.90
7360;DHT22;3720;48.274;7.796;2024-01-10T01:49:00;-0.80;99.90
7360;DHT22;3720;48.274;7.796;2024-01-10T01:51:32;-0.80;99.90
7360;DHT22;3720;48.274;7.796;2024-01-10T01:54:08;-0.70;99.90
7360;DHT22;3720;48.274;7.796;2024-01-10T01:56:40;-0.80;99.90
7360;DHT22;3720;48.274;7.796;2024-01-10T01:59:13;-0.70;99.90
7360;DHT22;3720;48.274;7.796;2024-01-10T02:01:45;-0.80;99.90
7360;DHT22;3720;48.274;7.796;2024-01-10T02:04:18;-0.80;99.90
7360;DHT22;3720;48.274;7.796;2024-01-10T02:06:50;-0.70;99.90
7360;DHT22;3720;48.274;7.796;2024-01-10T02:09:24;-0.70;99.90
7360;DHT22;3720;48.274;7.796;2024-01-10T02:11:55;-0.80;99.90
7360;DHT22;3720;48.274;7.796;2024-01-10T02:14:27;-0.80;99.90
7360;DHT22;3720;48.274;7.796;2024-01-10T02:16:59;-0.70;99.90
7360;DHT22;3720;48.274;7.796;2024-01-10T02:19:31;-0.70;99.90
7360;DHT22;3720;48.274;7.796;2024-01-10T02:22:05;-0.80;99.90
7360;DHT22;3720;48.274;7.796;2024-01-10T02:24:38;-0.80;99.90
7360;DHT22;3720;48.274;7.796;2024-01-10T02:27:11;-0.80;99.90
7360;DHT22;3720;48.274;7.796;2024-01-10T02:29:43;-0.80;99.90
7360;DHT22;3720;48.274;7.796;2024-01-10T02:32:15;-0.80;99.90
7360;DHT22;3720;48.274;7.796;2024-01-10T02:34:47;-0.90;99.90
7360;DHT22;3720;48.274;7.796;2024-01-10T02:37:18;-0.90;99.90
7360;DHT22;3720;48.274;7.796;2024-01-10T02:39:50;-0.90;99.90
7360;DHT22;3720;48.274;7.796;2024-01-10T02:42:23;-0.90;99.90
7360;DHT22;3720;48.274;7.796;2024-01-10T02:44:55;-0.90;99.90
7360;DHT22;3720;48.274;7.796;2024-01-10T02:47:27;-0.90;99.90
7360;DHT22;3720;48.274;7.796;2024-01-10T02:49:59;-0.80;99.90
7360;DHT22;3720;48.274;7.796;2024-01-10T02:52:31;-0.80;99.90
7360;DHT22;3720;48.274;7.796;2024-01-10T02:55:04;-0.80;99.90
7360;DHT22;3720;48.274;7.796;2024-01-10T02:57:38;-0.80;99.90
7360;DHT22;3720;48.274;7.796;2024-01-10T03:00:11;-0.80;99.90
7360;DHT22;3720;48.274;7.796;2024-01-10T03:02:43;-0.80;99.90
7360;DHT22;3720;48.274;7.796;2024-01-10T03:05:15;-0.90;99.90
7360;DHT22;3720;48.274;7.796;2024-01-10T03:07:47;-0.90;99.90
7360;DHT22;3720;48.274;7.796;2024-01-10T03:10:19;-0.90;99.90
7360;DHT22;3720;48.274;7.796;2024-01-10T03:12:52;-0.90;99.90
7360;DHT22;3720;48.274;7.796;2024-01-10T03:15:24;-0.90;99.90
7360;DHT22;3720;48.274;7.796;2024-01-10T03:17:56;-1.00;99.90
7360;DHT22;3720;48.274;7.796;2024-01-10T03:20:27;-1.00;99.90
7360;DHT22;3720;48.274;7.796;2024-01-10T03:22:59;-1.00;99.90
7360;DHT22;3720;48.274;7.796;2024-01-10T03:25:31;-1.00;99.90
7360;DHT22;3720;48.274;7.796;2024-01-10T03:28:05;-1.00;99.90
7360;DHT22;3720;48.274;7.796;2024-01-10T03:30:37;-1.00;99.90
7360;DHT22;3720;48.274;7.796;2024-01-10T03:33:08;-1.00;99.90
7360;DHT22;3720;48.274;7.796;2024-01-10T03:35:40;-1.10;99.90
7360;DHT22;3720;48.274;7.796;2024-01-10T03:38:12;-1.10;99.90
7360;DHT22;3720;48.274;7.796;2024-01-10T03:40:46;-1.20;99.90
7360;DHT22;3720;48.274;7.796;2024-01-10T03:43:19;-1.20;99.90
7360;DHT22;3720;48.274;7.796;2024-01-10T03:45:51;-1.20;99.90
7360;DHT22;3720;48.274;7.796;2024-01-10T03:48:24;-1.30;99.90
7360;DHT22;3720;48.274;7.796;2024-01-10T03:50:56;-1.30;99.90
7360;DHT22;3720;48.274;7.796;2024-01-10T03:53:28;-1.30;99.90
7360;DHT22;3720;48.274;7.796;2024-01-10T03:56:04;-1.30;99.90
7360;DHT22;3720;48.274;7.796;2024-01-10T03:58:37;-1.40;99.90
7360;DHT22;3720;48.274;7.796;2024-01-10T04:01:09;-1.40;99.90
7360;DHT22;3720;48.274;7.796;2024-01-10T04:03:41;-1.40;99.90
7360;DHT22;3720;48.274;7.796;2024-01-10T04:06:13;-1.40;99.90
7360;DHT22;3720;48.274;7.796;2024-01-10T04:08:45;-1.40;99.90
7360;DHT22;3720;48.274;7.796;2024-01-10T04:11:17;-1.50;99.90
7360;DHT22;3720;48.274;7.796;2024-01-10T04:13:50;-1.50;99.90
7360;DHT22;3720;48.274;7.796;2024-01-10T04:16:22;-1.50;99.90
7360;DHT22;3720;48.274;7.796;2024-01-10T04:18:54;-1.50;99.90
7360;DHT22;3720;48.274;7.796;2024-01-10T04:21:26;-1.60;99.90
7360;DHT22;3720;48.274;7.796;2024-01-10T04:23:58;-1.60;99.90
7360;DHT22;3720;48.274;7.796;2024-01-10T04:26:30;-1.60;99.90
7360;DHT22;3720;48.274;7.796;2024-01-10T04:29:04;-1.60;99.90
7360;DHT22;3720;48.274;7.796;2024-01-10T04:31:36;-1.60;99.90
7360;DHT22;3720;48.274;7.796;2024-01-10T04:34:07;-1.60;99.90
7360;DHT22;3720;48.274;7.796;2024-01-10T04:36:39;-1.60;99.90
7360;DHT22;3720;48.274;7.796;2024-01-10T04:39:11;-1.70;99.90
7360;DHT22;3720;48.274;7.796;2024-01-10T04:41:43;-1.70;99.90
7360;DHT22;3720;48.274;7.796;2024-01-10T04:44:16;-1.70;99.90
7360;DHT22;3720;48.274;7.796;2024-01-10T04:46:48;-1.70;99.90
7360;DHT22;3720;48.274;7.796;2024-01-10T04:49:20;-1.70;99.90
7360;DHT22;3720;48.274;7.796;2024-01-10T04:51:52;-1.70;99.90
7360;DHT22;3720;48.274;7.796;2024-01-10T04:54:24;-1.80;99.90
7360;DHT22;3720;48.274;7.796;2024-01-10T04:56:56;-1.80;99.90
7360;DHT22;3720;48.274;7.796;2024-01-10T04:59:29;-1.70;99.90
7360;DHT22;3720;48.274;7.796;2024-01-10T05:02:01;-1.80;99.90
7360;DHT22;3720;48.274;7.796;2024-01-10T05:04:32;-1.80;99.90
7360;DHT22;3720;48.274;7.796;2024-01-10T05:07:04;-1.90;99.90
7360;DHT22;3720;48.274;7.796;2024-01-10T05:09:36;-2.00;99.90
7360;DHT22;3720;48.274;7.796;2024-01-10T05:12:08;-2.00;99.90
7360;DHT22;3720;48.274;7.796;2024-01-10T05:14:41;-2.10;99.90
7360;DHT22;3720;48.274;7.796;2024-01-10T05:17:13;-2.10;99.90
7360;DHT22;3720;48.274;7.796;2024-01-10T05:19:45;-2.10;99.90
7360;DHT22;3720;48.274;7.796;2024-01-10T05:22:17;-2.10;99.90
7360;DHT22;3720;48.274;7.796;2024-01-10T05:24:49;-2.20;99.90
7360;DHT22;3720;48.274;7.796;2024-01-10T05:27:21;-2.20;99.90
7360;DHT22;3720;48.274;7.796;2024-01-10T05:29:55;-2.30;99.90
7360;DHT22;3720;48.274;7.796;2024-01-10T05:32:27;-2.30;99.90
7360;DHT22;3720;48.274;7.796;2024-01-10T05:34:59;-2.40;99.90
7360;DHT22;3720;48.274;7.796;2024-01-10T05:37:31;-2.50;99.90
7360;DHT22;3720;48.274;7.796;2024-01-10T05:40:04;-2.60;99.90
7360;DHT22;3720;48.274;7.796;2024-01-10T05:42:36;-2.60;99.90
7360;DHT22;3720;48.274;7.796;2024-01-10T05:45:10;-2.70;99.90
7360;DHT22;3720;48.274;7.796;2024-01-10T05:47:42;-2.60;99.90
7360;DHT22;3720;48.274;7.796;2024-01-10T05:50:14;-2.70;99.90
7360;DHT22;3720;48.274;7.796;2024-01-10T05:52:46;-2.60;99.90
7360;DHT22;3720;48.274;7.796;2024-01-10T05:55:18;-2.60;99.90
7360;DHT22;3720;48.274;7.796;2024-01-10T05:57:50;-2.60;99.90
7360;DHT22;3720;48.274;7.796;2024-01-10T06:00:24;-2.60;99.90
7360;DHT22;3720;48.274;7.796;2024-01-10T06:02:56;-2.60;99.90
7360;DHT22;3720;48.274;7.796;2024-01-10T06:05:28;-2.60;99.90
7360;DHT22;3720;48.274;7.796;2024-01-10T06:08:01;-2.70;99.90
7360;DHT22;3720;48.274;7.796;2024-01-10T06:10:34;-2.60;99.90
7360;DHT22;3720;48.274;7.796;2024-01-10T06:13:06;-2.60;99.90
7360;DHT22;3720;48.274;7.796;2024-01-10T06:15:40;-2.60;99.90
7360;DHT22;3720;48.274;7.796;2024-01-10T06:18:12;-2.70;99.90
7360;DHT22;3720;48.274;7.796;2024-01-10T06:20:44;-2.70;99.90
7360;DHT22;3720;48.274;7.796;2024-01-10T06:23:15;-2.80;99.90
7360;DHT22;3720;48.274;7.796;2024-01-10T06:25:47;-2.80;99.90
7360;DHT22;3720;48.274;7.796;2024-01-10T06:28:19;-2.80;99.90
7360;DHT22;3720;48.274;7.796;2024-01-10T06:30:52;-2.90;99.90
7360;DHT22;3720;48.274;7.796;2024-01-10T06:33:24;-2.90;99.90
7360;DHT22;3720;48.274;7.796;2024-01-10T06:35:56;-2.90;99.90
7360;DHT22;3720;48.274;7.796;2024-01-10T06:38:29;-2.80;99.90
7360;DHT22;3720;48.274;7.796;2024-01-10T06:41:00;-2.80;99.90
7360;DHT22;3720;48.274;7.796;2024-01-10T06:43:32;-2.90;99.90
7360;DHT22;3720;48.274;7.796;2024-01-10T06:46:07;-2.80;99.90
7360;DHT22;3720;48.274;7.796;2024-01-10T06:48:38;-2.90;99.90
7360;DHT22;3720;48.274;7.796;2024-01-10T06:51:12;-2.90;99.90
7360;DHT22;3720;48.274;7.796;2024-01-10T06:53:43;-2.90;99.90
7360;DHT22;3720;48.274;7.796;2024-01-10T06:56:15;-2.90;99.90
7360;DHT22;3720;48.274;7.796;2024-01-10T06:58:47;-3.00;99.90
7360;DHT22;3720;48.274;7.796;2024-01-10T07:01:20;-3.00;99.90
7360;DHT22;3720;48.274;7.796;2024-01-10T07:03:52;-3.00;99.90
7360;DHT22;3720;48.274;7.796;2024-01-10T07:06:25;-3.00;99.90
7360;DHT22;3720;48.274;7.796;2024-01-10T07:08:56;-3.10;99.90
7360;DHT22;3720;48.274;7.796;2024-01-10T07:11:39;-3.20;99.90
7360;DHT22;3720;48.274;7.796;2024-01-10T07:14:11;-3.20;99.90
7360;DHT22;3720;48.274;7.796;2024-01-10T07:16:45;-3.30;99.90
7360;DHT22;3720;48.274;7.796;2024-01-10T07:19:18;-3.30;99.90
7360;DHT22;3720;48.274;7.796;2024-01-10T07:21:49;-3.30;99.90
7360;DHT22;3720;48.274;7.796;2024-01-10T07:24:21;-3.30;99.90
7360;DHT22;3720;48.274;7.796;2024-01-10T07:26:53;-3.30;99.90
7360;DHT22;3720;48.274;7.796;2024-01-10T07:29:25;-3.30;99.90
7360;DHT22;3720;48.274;7.796;2024-01-10T07:31:58;-3.30;99.90
7360;DHT22;3720;48.274;7.796;2024-01-10T07:34:30;-3.30;99.90
7360;DHT22;3720;48.274;7.796;2024-01-10T07:37:03;-3.30;99.90
7360;DHT22;3720;48.274;7.796;2024-01-10T07:39:35;-3.30;99.90
7360;DHT22;3720;48.274;7.796;2024-01-10T07:42:06;-3.30;99.90
7360;DHT22;3720;48.274;7.796;2024-01-10T07:44:38;-3.30;99.90
7360;DHT22;3720;48.274;7.796;2024-01-10T07:47:12;-3.30;99.90
7360;DHT22;3720;48.274;7.796;2024-01-10T07:49:43;-3.30;99.90
7360;DHT22;3720;48.274;7.796;2024-01-10T07:52:15;-3.30;99.90
7360;DHT22;3720;48.274;7.796;2024-01-10T07:54:47;-3.30;99.90
7360;DHT22;3720;48.274;7.796;2024-01-10T07:57:19;-3.30;99.90
7360;DHT22;3720;48.274;7.796;2024-01-10T07:59:51;-3.30;99.90
7360;DHT22;3720;48.274;7.796;2024-01-10T08:02:24;-3.30;99.90
7360;DHT22;3720;48.274;7.796;2024-01-10T08:04:56;-3.30;99.90
7360;DHT22;3720;48.274;7.796;2024-01-10T08:07:28;-3.30;99.90
7360;DHT22;3720;48.274;7.796;2024-01-10T08:10:00;-3.30;99.90
7360;DHT22;3720;48.274;7.796;2024-01-10T08:12:31;-3.30;99.90
7360;DHT22;3720;48.274;7.796;2024-01-10T08:15:04;-3.20;99.90
7360;DHT22;3720;48.274;7.796;2024-01-10T08:17:38;-3.10;99.90
7360;DHT22;3720;48.274;7.796;2024-01-10T08:20:10;-3.10;99.90
7360;DHT22;3720;48.274;7.796;2024-01-10T08:22:45;-3.00;99.90
7360;DHT22;3720;48.274;7.796;2024-01-10T08:25:17;-3.00;99.90
7360;DHT22;3720;48.274;7.796;2024-01-10T08:27:49;-3.00;99.90
7360;DHT22;3720;48.274;7.796;2024-01-10T08:30:22;-2.90;99.90
7360;DHT22;3720;48.274;7.796;2024-01-10T08:32:55;-2.80;99.90
7360;DHT22;3720;48.274;7.796;2024-01-10T08:35:27;-2.80;99.90
7360;DHT22;3720;48.274;7.796;2024-01-10T08:37:59;-2.70;99.90
7360;DHT22;3720;48.274;7.796;2024-01-10T08:40:33;-2.70;99.90
7360;DHT22;3720;48.274;7.796;2024-01-10T08:43:05;-2.60;99.90
7360;DHT22;3720;48.274;7.796;2024-01-10T08:45:37;-2.50;99.90
7360;DHT22;3720;48.274;7.796;2024-01-10T08:48:10;-2.50;99.90
7360;DHT22;3720;48.274;7.796;2024-01-10T08:50:43;-2.40;99.90
7360;DHT22;3720;48.274;7.796;2024-01-10T08:53:15;-2.30;99.90
7360;DHT22;3720;48.274;7.796;2024-01-10T08:55:47;-2.20;99.90
7360;DHT22;3720;48.274;7.796;2024-01-10T08:58:19;-2.00;99.90
7360;DHT22;3720;48.274;7.796;2024-01-10T09:00:51;-1.90;99.90
7360;DHT22;3720;48.274;7.796;2024-01-10T09:03:24;-1.70;99.90
7360;DHT22;3720;48.274;7.796;2024-01-10T09:05:56;-1.60;99.90
7360;DHT22;3720;48.274;7.796;2024-01-10T09:08:27;-1.50;99.90
7360;DHT22;3720;48.274;7.796;2024-01-10T09:10:59;-1.30;99.90
7360;DHT22;3720;48.274;7.796;2024-01-10T09:13:31;-1.20;99.90
7360;DHT22;3720;48.274;7.796;2024-01-10T09:16:04;-1.10;99.90
7360;DHT22;3720;48.274;7.796;2024-01-10T09:18:38;-0.90;99.90
7360;DHT22;3720;48.274;7.796;2024-01-10T09:21:10;-0.80;99.90
7360;DHT22;3720;48.274;7.796;2024-01-10T09:23:42;-0.70;99.90
7360;DHT22;3720;48.274;7.796;2024-01-10T09:26:14;-0.50;99.90
7360;DHT22;3720;48.274;7.796;2024-01-10T09:28:46;-0.40;99.90
7360;DHT22;3720;48.274;7.796;2024-01-10T09:31:18;-0.20;99.90
7360;DHT22;3720;48.274;7.796;2024-01-10T09:33:51;0.00;99.90
7360;DHT22;3720;48.274;7.796;2024-01-10T09:36:23;0.00;99.90
7360;DHT22;3720;48.274;7.796;2024-01-10T09:38:54;0.20;99.90
7360;DHT22;3720;48.274;7.796;2024-01-10T09:41:28;0.40;99.90
7360;DHT22;3720;48.274;7.796;2024-01-10T09:44:03;0.50;99.90
7360;DHT22;3720;48.274;7.796;2024-01-10T09:46:37;0.70;99.90
7360;DHT22;3720;48.274;7.796;2024-01-10T09:49:11;0.60;99.90
7360;DHT22;3720;48.274;7.796;2024-01-10T09:51:45;0.50;99.90
7360;DHT22;3720;48.274;7.796;2024-01-10T09:54:20;0.50;99.90
7360;DHT22;3720;48.274;7.796;2024-01-10T09:56:53;0.40;99.90
7360;DHT22;3720;48.274;7.796;2024-01-10T09:59:26;0.40;99.90
7360;DHT22;3720;48.274;7.796;2024-01-10T10:01:58;0.50;99.90
7360;DHT22;3720;48.274;7.796;2024-01-10T10:04:31;0.70;99.90
7360;DHT22;3720;48.274;7.796;2024-01-10T10:07:03;1.10;99.90
7360;DHT22;3720;48.274;7.796;2024-01-10T10:09:36;1.50;99.90
7360;DHT22;3720;48.274;7.796;2024-01-10T10:12:08;1.90;99.90
7360;DHT22;3720;48.274;7.796;2024-01-10T10:14:40;2.30;99.90
7360;DHT22;3720;48.274;7.796;2024-01-10T10:17:16;2.50;99.90
7360;DHT22;3720;48.274;7.796;2024-01-10T10:19:49;2.60;99.90
7360;DHT22;3720;48.274;7.796;2024-01-10T10:22:21;2.70;99.90
7360;DHT22;3720;48.274;7.796;2024-01-10T10:24:53;2.90;99.90
7360;DHT22;3720;48.274;7.796;2024-01-10T10:27:25;2.90;99.90
7360;DHT22;3720;48.274;7.796;2024-01-10T10:29:57;3.00;99.90
7360;DHT22;3720;48.274;7.796;2024-01-10T10:32:30;3.00;99.90
7360;DHT22;3720;48.274;7.796;2024-01-10T10:35:04;3.20;99.90
7360;DHT22;3720;48.274;7.796;2024-01-10T10:37:38;3.50;99.90
7360;DHT22;3720;48.274;7.796;2024-01-10T10:40:10;3.60;99.90
7360;DHT22;3720;48.274;7.796;2024-01-10T10:42:45;3.90;99.90
7360;DHT22;3720;48.274;7.796;2024-01-10T10:45:18;4.20;99.90
7360;DHT22;3720;48.274;7.796;2024-01-10T10:47:57;4.40;99.90
7360;DHT22;3720;48.274;7.796;2024-01-10T10:50:34;4.60;99.90
7360;DHT22;3720;48.274;7.796;2024-01-10T10:53:07;4.80;99.90
7360;DHT22;3720;48.274;7.796;2024-01-10T10:55:40;5.00;99.90
7360;DHT22;3720;48.274;7.796;2024-01-10T10:58:13;5.20;99.90
7360;DHT22;3720;48.274;7.796;2024-01-10T11:00:47;5.20;99.90
7360;DHT22;3720;48.274;7.796;2024-01-10T11:03:20;5.10;99.90
7360;DHT22;3720;48.274;7.796;2024-01-10T11:05:54;4.70;99.90
7360;DHT22;3720;48.274;7.796;2024-01-10T11:08:27;4.30;99.90
7360;DHT22;3720;48.274;7.796;2024-01-10T11:11:01;4.10;99.90
7360;DHT22;3720;48.274;7.796;2024-01-10T11:13:54;3.90;99.90
7360;DHT22;3720;48.274;7.796;2024-01-10T11:19:51;3.90;99.90
7360;DHT22;3720;48.274;7.796;2024-01-10T11:22:40;4.30;99.90
7360;DHT22;3720;48.274;7.796;2024-01-10T11:25:15;4.60;99.90
7360;DHT22;3720;48.274;7.796;2024-01-10T11:27:52;4.60;99.90
7360;DHT22;3720;48.274;7.796;2024-01-10T11:30:33;4.50;99.90
7360;DHT22;3720;48.274;7.796;2024-01-10T11:33:23;4.50;99.90
7360;DHT22;3720;48.274;7.796;2024-01-10T11:36:09;4.40;99.90
7360;DHT22;3720;48.274;7.796;2024-01-10T11:38:47;4.50;99.90
7360;DHT22;3720;48.274;7.796;2024-01-10T11:41:23;4.80;99.90
7360;DHT22;3720;48.274;7.796;2024-01-10T11:44:29;5.20;99.90
7360;DHT22;3720;48.274;7.796;2024-01-10T11:47:04;5.60;99.90
7360;DHT22;3720;48.274;7.796;2024-01-10T11:49:35;6.00;99.90
7360;DHT22;3720;48.274;7.796;2024-01-10T11:52:09;6.40;99.90
7360;DHT22;3720;48.274;7.796;2024-01-10T11:54:46;6.80;99.90
7360;DHT22;3720;48.274;7.796;2024-01-10T11:57:22;7.20;99.90
7360;DHT22;3720;48.274;7.796;2024-01-10T11:59:55;7.60;99.90
7360;DHT22;3720;48.274;7.796;2024-01-10T12:02:30;7.70;99.90
7360;DHT22;3720;48.274;7.796;2024-01-10T12:05:03;7.90;99.90
7360;DHT22;3720;48.274;7.796;2024-01-10T12:07:35;7.90;99.90
7360;DHT22;3720;48.274;7.796;2024-01-10T12:10:09;8.00;99.90
7360;DHT22;3720;48.274;7.796;2024-01-10T12:12:41;8.30;99.90
7360;DHT22;3720;48.274;7.796;2024-01-10T12:15:14;8.40;99.90
7360;DHT22;3720;48.274;7.796;2024-01-10T12:17:46;8.60;99.90
7360;DHT22;3720;48.274;7.796;2024-01-10T12:20:18;8.70;99.90
7360;DHT22;3720;48.274;7.796;2024-01-10T12:22:50;8.60;99.90
7360;DHT22;3720;48.274;7.796;2024-01-10T12:25:23;8.50;99.90
7360;DHT22;3720;48.274;7.796;2024-01-10T12:28:01;8.60;99.90
7360;DHT22;3720;48.274;7.796;2024-01-10T12:30:33;8.60;99.90
7360;DHT22;3720;48.274;7.796;2024-01-10T12:33:05;8.60;99.90
7360;DHT22;3720;48.274;7.796;2024-01-10T12:35:37;8.70;99.90
7360;DHT22;3720;48.274;7.796;2024-01-10T12:38:13;8.40;99.90
7360;DHT22;3720;48.274;7.796;2024-01-10T12:40:46;8.50;99.90
7360;DHT22;3720;48.274;7.796;2024-01-10T12:43:19;8.50;99.90
7360;DHT22;3720;48.274;7.796;2024-01-10T12:46:03;8.70;99.90
7360;DHT22;3720;48.274;7.796;2024-01-10T12:48:35;8.90;99.90
7360;DHT22;3720;48.274;7.796;2024-01-10T12:51:09;9.20;99.90
7360;DHT22;3720;48.274;7.796;2024-01-10T12:53:41;9.20;99.90
7360;DHT22;3720;48.274;7.796;2024-01-10T12:56:15;9.40;99.90
7360;DHT22;3720;48.274;7.796;2024-01-10T12:58:47;9.40;99.90
7360;DHT22;3720;48.274;7.796;2024-01-10T13:01:18;9.60;99.90
7360;DHT22;3720;48.274;7.796;2024-01-10T13:03:51;9.50;99.90
7360;DHT22;3720;48.274;7.796;2024-01-10T13:06:23;9.50;99.90
7360;DHT22;3720;48.274;7.796;2024-01-10T13:08:55;9.60;99.90
7360;DHT22;3720;48.274;7.796;2024-01-10T13:11:28;9.60;99.90
7360;DHT22;3720;48.274;7.796;2024-01-10T13:14:01;9.60;99.90
7360;DHT22;3720;48.274;7.796;2024-01-10T13:16:33;9.70;99.90
7360;DHT22;3720;48.274;7.796;2024-01-10T13:19:04;9.80;99.90
7360;DHT22;3720;48.274;7.796;2024-01-10T13:21:37;9.80;99.90
7360;DHT22;3720;48.274;7.796;2024-01-10T13:24:10;9.90;99.20
7360;DHT22;3720;48.274;7.796;2024-01-10T13:26:43;9.80;99.10
7360;DHT22;3720;48.274;7.796;2024-01-10T13:29:15;9.90;99.30
7360;DHT22;3720;48.274;7.796;2024-01-10T13:31:47;9.90;99.00
7360;DHT22;3720;48.274;7.796;2024-01-10T13:34:19;9.90;98.30
7360;DHT22;3720;48.274;7.796;2024-01-10T13:36:51;9.80;98.30
7360;DHT22;3720;48.274;7.796;2024-01-10T13:39:23;9.50;98.00
7360;DHT22;3720;48.274;7.796;2024-01-10T13:41:56;9.40;98.90
7360;DHT22;3720;48.274;7.796;2024-01-10T13:44:28;9.10;99.10
7360;DHT22;3720;48.274;7.796;2024-01-10T13:47:00;8.80;99.60
7360;DHT22;3720;48.274;7.796;2024-01-10T13:49:34;8.50;99.90
7360;DHT22;3720;48.274;7.796;2024-01-10T13:52:05;8.30;99.90
7360;DHT22;3720;48.274;7.796;2024-01-10T13:54:37;8.20;99.90
7360;DHT22;3720;48.274;7.796;2024-01-10T13:57:10;8.10;99.90
7360;DHT22;3720;48.274;7.796;2024-01-10T13:59:42;8.10;99.90
7360;DHT22;3720;48.274;7.796;2024-01-10T14:02:14;8.00;99.90
7360;DHT22;3720;48.274;7.796;2024-01-10T14:04:49;8.10;99.90
7360;DHT22;3720;48.274;7.796;2024-01-10T14:07:21;8.20;99.90
7360;DHT22;3720;48.274;7.796;2024-01-10T14:09:53;8.30;99.90
7360;DHT22;3720;48.274;7.796;2024-01-10T14:12:27;8.40;99.90
7360;DHT22;3720;48.274;7.796;2024-01-10T14:14:59;8.40;99.90
7360;DHT22;3720;48.274;7.796;2024-01-10T14:17:31;8.40;99.90
7360;DHT22;3720;48.274;7.796;2024-01-10T14:20:04;8.40;99.90
7360;DHT22;3720;48.274;7.796;2024-01-10T14:22:39;8.40;99.90
7360;DHT22;3720;48.274;7.796;2024-01-10T14:25:12;8.40;99.90
7360;DHT22;3720;48.274;7.796;2024-01-10T14:27:46;8.30;99.90
7360;DHT22;3720;48.274;7.796;2024-01-10T14:30:18;8.20;99.90
7360;DHT22;3720;48.274;7.796;2024-01-10T14:32:50;8.10;99.90
7360;DHT22;3720;48.274;7.796;2024-01-10T14:35:22;8.10;99.90
7360;DHT22;3720;48.274;7.796;2024-01-10T14:37:54;8.10;99.90
7360;DHT22;3720;48.274;7.796;2024-01-10T14:40:26;8.00;99.90
7360;DHT22;3720;48.274;7.796;2024-01-10T14:42:59;7.90;99.90
7360;DHT22;3720;48.274;7.796;2024-01-10T14:45:31;7.80;99.90
7360;DHT22;3720;48.274;7.796;2024-01-10T14:48:03;7.80;99.90
7360;DHT22;3720;48.274;7.796;2024-01-10T14:50:36;7.70;99.90
7360;DHT22;3720;48.274;7.796;2024-01-10T14:53:07;7.70;99.90
7360;DHT22;3720;48.274;7.796;2024-01-10T14:55:39;7.50;99.90
7360;DHT22;3720;48.274;7.796;2024-01-10T14:58:13;7.40;99.90
7360;DHT22;3720;48.274;7.796;2024-01-10T15:00:46;7.40;99.90
7360;DHT22;3720;48.274;7.796;2024-01-10T15:03:18;7.20;99.90
7360;DHT22;3720;48.274;7.796;2024-01-10T15:05:50;7.10;99.90
7360;DHT22;3720;48.274;7.796;2024-01-10T15:08:23;7.00;99.90
7360;DHT22;3720;48.274;7.796;2024-01-10T15:10:55;7.00;99.90
7360;DHT22;3720;48.274;7.796;2024-01-10T15:13:29;6.80;99.90
7360;DHT22;3720;48.274;7.796;2024-01-10T15:16:01;6.80;99.90
7360;DHT22;3720;48.274;7.796;2024-01-10T15:18:32;6.70;99.90
7360;DHT22;3720;48.274;7.796;2024-01-10T15:21:04;6.40;99.90
7360;DHT22;3720;48.274;7.796;2024-01-10T15:23:36;6.30;99.90
7360;DHT22;3720;48.274;7.796;2024-01-10T15:26:12;6.20;99.90
7360;DHT22;3720;48.274;7.796;2024-01-10T15:28:47;6.10;99.90
7360;DHT22;3720;48.274;7.796;2024-01-10T15:31:20;5.80;99.90
7360;DHT22;3720;48.274;7.796;2024-01-10T15:33:52;5.70;99.90
7360;DHT22;3720;48.274;7.796;2024-01-10T15:36:23;5.50;99.90
7360;DHT22;3720;48.274;7.796;2024-01-10T15:38:55;5.20;99.90
7360;DHT22;3720;48.274;7.796;2024-01-10T15:41:27;4.90;99.90
7360;DHT22;3720;48.274;7.796;2024-01-10T15:44:00;4.80;99.90
7360;DHT22;3720;48.274;7.796;2024-01-10T15:46:33;4.50;99.90
7360;DHT22;3720;48.274;7.796;2024-01-10T15:49:05;4.30;99.90
7360;DHT22;3720;48.274;7.796;2024-01-10T15:51:37;4.10;99.90
7360;DHT22;3720;48.274;7.796;2024-01-10T15:54:09;3.90;99.90
7360;DHT22;3720;48.274;7.796;2024-01-10T15:56:41;3.70;99.90
7360;DHT22;3720;48.274;7.796;2024-01-10T15:59:15;3.60;99.90
7360;DHT22;3720;48.274;7.796;2024-01-10T16:01:47;3.50;99.90
7360;DHT22;3720;48.274;7.796;2024-01-10T16:04:18;3.40;99.90
7360;DHT22;3720;48.274;7.796;2024-01-10T16:06:50;3.40;99.90
7360;DHT22;3720;48.274;7.796;2024-01-10T16:09:22;3.20;99.90
7360;DHT22;3720;48.274;7.796;2024-01-10T16:11:54;3.10;99.90
7360;DHT22;3720;48.274;7.796;2024-01-10T16:14:28;3.00;99.90
7360;DHT22;3720;48.274;7.796;2024-01-10T16:17:00;2.90;99.90
7360;DHT22;3720;48.274;7.796;2024-01-10T16:19:33;2.80;99.90
7360;DHT22;3720;48.274;7.796;2024-01-10T16:22:04;2.70;99.90
7360;DHT22;3720;48.274;7.796;2024-01-10T16:24:36;2.70;99.90
7360;DHT22;3720;48.274;7.796;2024-01-10T16:27:08;2.50;99.90
7360;DHT22;3720;48.274;7.796;2024-01-10T16:29:41;2.50;99.90
7360;DHT22;3720;48.274;7.796;2024-01-10T16:32:13;2.30;99.90
7360;DHT22;3720;48.274;7.796;2024-01-10T16:34:46;2.30;99.90
7360;DHT22;3720;48.274;7.796;2024-01-10T16:37:18;2.30;99.90
7360;DHT22;3720;48.274;7.796;2024-01-10T16:39:50;2.20;99.90
7360;DHT22;3720;48.274;7.796;2024-01-10T16:42:22;2.20;99.90
7360;DHT22;3720;48.274;7.796;2024-01-10T16:44:55;2.10;99.90
7360;DHT22;3720;48.274;7.796;2024-01-10T16:47:27;2.00;99.90
7360;DHT22;3720;48.274;7.796;2024-01-10T16:49:59;1.90;99.90